sensor_id;sensor_type;location;lat;lon;timestamp;P1;durP1;ratioP1;P2;durP2;ratioP2
27031;SDS011;14580;52.918;9.214;2023-03-02T00:01:30;24.60;;;11.97;;
27031;SDS011;14580;52.918;9.214;2023-03-02T00:07:10;26.33;;;12.17;;
27031;SDS011;14580;52.918;9.214;2023-03-02T00:09:40;23.60;;;12.87;;
27031;SDS011;14580;52.918;9.214;2023-03-02T00:12:08;47.40;;;13.47;;
27031;SDS011;14580;52.918;9.214;2023-03-02T00:14:35;17.87;;;10.50;;
27031;SDS011;14580;52.918;9.214;2023-03-02T00:17:04;35.27;;;12.60;;
27031;SDS011;14580;52.918;9.214;2023-03-02T00:19:32;43.03;;;14.17;;
27031;SDS011;14580;52.918;9.214;2023-03-02T00:21:58;20.57;;;11.47;;
27031;SDS011;14580;52.918;9.214;2023-03-02T00:24:25;26.30;;;12.50;;
27031;SDS011;14580;52.918;9.214;2023-03-02T00:26:51;27.20;;;12.07;;
27031;SDS011;14580;52.918;9.214;2023-03-02T00:29:17;21.83;;;11.57;;
27031;SDS011;14580;52.918;9.214;2023-03-02T00:31:43;22.40;;;11.77;;
27031;SDS011;14580;52.918;9.214;2023-03-02T00:34:10;26.93;;;12.67;;
27031;SDS011;14580;52.918;9.214;2023-03-02T00:36:36;23.87;;;12.70;;
27031;SDS011;14580;52.918;9.214;2023-03-02T00:39:03;26.37;;;11.93;;
27031;SDS011;14580;52.918;9.214;2023-03-02T00:41:30;22.67;;;12.57;;
27031;SDS011;14580;52.918;9.214;2023-03-02T00:43:57;24.93;;;12.97;;
27031;SDS011;14580;52.918;9.214;2023-03-02T00:46:23;26.50;;;11.57;;
27031;SDS011;14580;52.918;9.214;2023-03-02T00:48:50;26.10;;;13.43;;
27031;SDS011;14580;52.918;9.214;2023-03-02T00:51:17;24.37;;;12.70;;
27031;SDS011;14580;52.918;9.214;2023-03-02T00:53:43;22.30;;;12.27;;
27031;SDS011;14580;52.918;9.214;2023-03-02T00:56:10;24.53;;;12.47;;
27031;SDS011;14580;52.918;9.214;2023-03-02T00:58:36;19.17;;;10.57;;
27031;SDS011;14580;52.918;9.214;2023-03-02T01:01:07;23.73;;;12.83;;
27031;SDS011;14580;52.918;9.214;2023-03-02T01:03:37;22.37;;;13.17;;
27031;SDS011;14580;52.918;9.214;2023-03-02T01:06:03;22.70;;;12.80;;
27031;SDS011;14580;52.918;9.214;2023-03-02T01:08:37;24.97;;;12.57;;
27031;SDS011;14580;52.918;9.214;2023-03-02T01:11:10;28.43;;;11.97;;
27031;SDS011;14580;52.918;9.214;2023-03-02T01:13:42;23.33;;;12.87;;
27031;SDS011;14580;52.918;9.214;2023-03-02T01:16:10;19.37;;;12.33;;
27031;SDS011;14580;52.918;9.214;2023-03-02T01:18:37;20.40;;;11.83;;
27031;SDS011;14580;52.918;9.214;2023-03-02T01:21:04;33.43;;;12.87;;
27031;SDS011;14580;52.918;9.214;2023-03-02T01:23:37;18.83;;;10.87;;
27031;SDS011;14580;52.918;9.214;2023-03-02T01:26:04;18.17;;;11.20;;
27031;SDS011;14580;52.918;9.214;2023-03-02T01:28:30;28.87;;;11.27;;
27031;SDS011;14580;52.918;9.214;2023-03-02T01:30:57;26.03;;;10.73;;
27031;SDS011;14580;52.918;9.214;2023-03-02T01:33:25;18.13;;;10.43;;
27031;SDS011;14580;52.918;9.214;2023-03-02T01:35:51;21.77;;;12.07;;
27031;SDS011;14580;52.918;9.214;2023-03-02T01:38:18;19.80;;;10.33;;
27031;SDS011;14580;52.918;9.214;2023-03-02T01:40:44;18.83;;;12.17;;
27031;SDS011;14580;52.918;9.214;2023-03-02T01:43:12;36.83;;;12.23;;
27031;SDS011;14580;52.918;9.214;2023-03-02T01:48:35;18.70;;;10.40;;
27031;SDS011;14580;52.918;9.214;2023-03-02T01:51:10;20.87;;;10.80;;
27031;SDS011;14580;52.918;9.214;2023-03-02T01:53:41;18.63;;;11.47;;
27031;SDS011;14580;52.918;9.214;2023-03-02T01:56:17;24.37;;;11.20;;
27031;SDS011;14580;52.918;9.214;2023-03-02T01:58:49;23.73;;;11.47;;
27031;SDS011;14580;52.918;9.214;2023-03-02T02:01:20;20.70;;;11.57;;
27031;SDS011;14580;52.918;9.214;2023-03-02T02:03:48;27.07;;;11.80;;
27031;SDS011;14580;52.918;9.214;2023-03-02T02:06:20;16.60;;;10.87;;
27031;SDS011;14580;52.918;9.214;2023-03-02T02:08:48;25.73;;;11.43;;
27031;SDS011;14580;52.918;9.214;2023-03-02T02:11:18;19.83;;;10.93;;
27031;SDS011;14580;52.918;9.214;2023-03-02T02:13:45;38.03;;;11.27;;
27031;SDS011;14580;52.918;9.214;2023-03-02T02:16:12;16.57;;;9.80;;
27031;SDS011;14580;52.918;9.214;2023-03-02T02:18:39;40.43;;;13.23;;
27031;SDS011;14580;52.918;9.214;2023-03-02T02:21:07;27.73;;;11.70;;
27031;SDS011;14580;52.918;9.214;2023-03-02T02:23:41;20.20;;;11.17;;
27031;SDS011;14580;52.918;9.214;2023-03-02T02:29:11;26.17;;;12.10;;
27031;SDS011;14580;52.918;9.214;2023-03-02T02:31:39;40.97;;;11.77;;
27031;SDS011;14580;52.918;9.214;2023-03-02T02:34:24;19.33;;;9.67;;
27031;SDS011;14580;52.918;9.214;2023-03-02T02:40:00;17.67;;;10.13;;
27031;SDS011;14580;52.918;9.214;2023-03-02T02:42:36;20.03;;;9.63;;
27031;SDS011;14580;52.918;9.214;2023-03-02T02:45:25;22.13;;;11.50;;
27031;SDS011;14580;52.918;9.214;2023-03-02T02:47:53;27.47;;;11.70;;
27031;SDS011;14580;52.918;9.214;2023-03-02T02:50:22;26.67;;;11.63;;
27031;SDS011;14580;52.918;9.214;2023-03-02T02:53:02;20.00;;;9.37;;
27031;SDS011;14580;52.918;9.214;2023-03-02T02:55:45;19.77;;;11.67;;
27031;SDS011;14580;52.918;9.214;2023-03-02T02:58:36;22.57;;;11.70;;
27031;SDS011;14580;52.918;9.214;2023-03-02T03:01:17;20.20;;;9.90;;
27031;SDS011;14580;52.918;9.214;2023-03-02T03:03:57;26.07;;;9.13;;
27031;SDS011;14580;52.918;9.214;2023-03-02T03:06:29;21.03;;;10.27;;
27031;SDS011;14580;52.918;9.214;2023-03-02T03:09:07;37.20;;;12.00;;
27031;SDS011;14580;52.918;9.214;2023-03-02T03:11:36;20.43;;;11.47;;
27031;SDS011;14580;52.918;9.214;2023-03-02T03:14:10;22.93;;;11.63;;
27031;SDS011;14580;52.918;9.214;2023-03-02T03:16:44;57.87;;;12.57;;
27031;SDS011;14580;52.918;9.214;2023-03-02T03:19:29;22.30;;;11.37;;
27031;SDS011;14580;52.918;9.214;2023-03-02T03:21:58;23.10;;;10.93;;
27031;SDS011;14580;52.918;9.214;2023-03-02T03:24:26;41.97;;;11.27;;
27031;SDS011;14580;52.918;9.214;2023-03-02T03:26:55;14.13;;;8.77;;
27031;SDS011;14580;52.918;9.214;2023-03-02T03:29:23;16.97;;;10.17;;
27031;SDS011;14580;52.918;9.214;2023-03-02T03:31:53;24.83;;;11.20;;
27031;SDS011;14580;52.918;9.214;2023-03-02T03:34:21;22.70;;;11.17;;
27031;SDS011;14580;52.918;9.214;2023-03-02T03:36:49;27.00;;;10.67;;
27031;SDS011;14580;52.918;9.214;2023-03-02T03:39:17;17.57;;;8.80;;
27031;SDS011;14580;52.918;9.214;2023-03-02T03:41:44;18.43;;;9.77;;
27031;SDS011;14580;52.918;9.214;2023-03-02T03:44:11;20.07;;;10.40;;
27031;SDS011;14580;52.918;9.214;2023-03-02T03:46:39;29.77;;;10.43;;
27031;SDS011;14580;52.918;9.214;2023-03-02T03:49:06;66.47;;;11.50;;
27031;SDS011;14580;52.918;9.214;2023-03-02T03:51:32;23.30;;;10.23;;
27031;SDS011;14580;52.918;9.214;2023-03-02T03:54:00;49.07;;;11.83;;
27031;SDS011;14580;52.918;9.214;2023-03-02T03:56:31;19.93;;;11.43;;
27031;SDS011;14580;52.918;9.214;2023-03-02T03:59:02;18.57;;;9.73;;
27031;SDS011;14580;52.918;9.214;2023-03-02T04:01:50;19.80;;;10.50;;
27031;SDS011;14580;52.918;9.214;2023-03-02T04:04:24;35.97;;;11.40;;
27031;SDS011;14580;52.918;9.214;2023-03-02T04:07:00;15.13;;;8.93;;
27031;SDS011;14580;52.918;9.214;2023-03-02T04:09:27;20.83;;;10.90;;
27031;SDS011;14580;52.918;9.214;2023-03-02T04:11:55;17.73;;;11.00;;
27031;SDS011;14580;52.918;9.214;2023-03-02T04:14:24;27.60;;;11.17;;
27031;SDS011;14580;52.918;9.214;2023-03-02T04:16:51;24.23;;;11.33;;
27031;SDS011;14580;52.918;9.214;2023-03-02T04:19:17;20.83;;;10.33;;
27031;SDS011;14580;52.918;9.214;2023-03-02T04:21:45;28.93;;;10.80;;
27031;SDS011;14580;52.918;9.214;2023-03-02T04:24:15;28.47;;;10.43;;
27031;SDS011;14580;52.918;9.214;2023-03-02T04:26:44;19.93;;;10.63;;
27031;SDS011;14580;52.918;9.214;2023-03-02T04:29:11;21.53;;;10.27;;
27031;SDS011;14580;52.918;9.214;2023-03-02T04:31:38;23.43;;;10.67;;
27031;SDS011;14580;52.918;9.214;2023-03-02T04:34:05;15.63;;;10.03;;
27031;SDS011;14580;52.918;9.214;2023-03-02T04:36:33;25.20;;;10.43;;
27031;SDS011;14580;52.918;9.214;2023-03-02T04:39:03;29.70;;;10.80;;
27031;SDS011;14580;52.918;9.214;2023-03-02T04:41:31;20.13;;;9.17;;
27031;SDS011;14580;52.918;9.214;2023-03-02T04:43:57;18.97;;;10.93;;
27031;SDS011;14580;52.918;9.214;2023-03-02T04:46:25;25.53;;;9.50;;
27031;SDS011;14580;52.918;9.214;2023-03-02T04:48:52;19.07;;;10.23;;
27031;SDS011;14580;52.918;9.214;2023-03-02T04:51:26;31.63;;;10.27;;
27031;SDS011;14580;52.918;9.214;2023-03-02T04:53:58;15.13;;;8.97;;
27031;SDS011;14580;52.918;9.214;2023-03-02T04:56:27;17.70;;;9.70;;
27031;SDS011;14580;52.918;9.214;2023-03-02T04:58:55;15.10;;;8.77;;
27031;SDS011;14580;52.918;9.214;2023-03-02T05:01:21;19.33;;;7.83;;
27031;SDS011;14580;52.918;9.214;2023-03-02T05:03:49;16.90;;;8.23;;
27031;SDS011;14580;52.918;9.214;2023-03-02T05:06:16;34.23;;;9.27;;
27031;SDS011;14580;52.918;9.214;2023-03-02T05:08:46;22.07;;;8.97;;
27031;SDS011;14580;52.918;9.214;2023-03-02T05:11:13;16.80;;;8.37;;
27031;SDS011;14580;52.918;9.214;2023-03-02T05:13:46;16.67;;;8.90;;
27031;SDS011;14580;52.918;9.214;2023-03-02T05:16:14;31.87;;;9.50;;
27031;SDS011;14580;52.918;9.214;2023-03-02T05:18:41;31.93;;;9.63;;
27031;SDS011;14580;52.918;9.214;2023-03-02T05:21:07;15.70;;;9.00;;
27031;SDS011;14580;52.918;9.214;2023-03-02T05:23:34;23.67;;;8.93;;
27031;SDS011;14580;52.918;9.214;2023-03-02T05:26:01;20.70;;;9.13;;
27031;SDS011;14580;52.918;9.214;2023-03-02T05:28:27;16.63;;;8.77;;
27031;SDS011;14580;52.918;9.214;2023-03-02T05:30:54;15.13;;;8.47;;
27031;SDS011;14580;52.918;9.214;2023-03-02T05:33:20;21.20;;;10.00;;
27031;SDS011;14580;52.918;9.214;2023-03-02T05:35:46;12.57;;;8.77;;
27031;SDS011;14580;52.918;9.214;2023-03-02T05:38:13;14.10;;;8.17;;
27031;SDS011;14580;52.918;9.214;2023-03-02T05:40:40;16.57;;;8.03;;
27031;SDS011;14580;52.918;9.214;2023-03-02T05:43:07;19.33;;;8.40;;
27031;SDS011;14580;52.918;9.214;2023-03-02T05:45:36;20.63;;;9.10;;
27031;SDS011;14580;52.918;9.214;2023-03-02T05:48:03;15.27;;;8.57;;
27031;SDS011;14580;52.918;9.214;2023-03-02T05:50:31;14.67;;;9.10;;
27031;SDS011;14580;52.918;9.214;2023-03-02T05:52:57;31.60;;;9.23;;
27031;SDS011;14580;52.918;9.214;2023-03-02T05:55:26;12.73;;;7.27;;
27031;SDS011;14580;52.918;9.214;2023-03-02T05:57:54;43.57;;;9.43;;
27031;SDS011;14580;52.918;9.214;2023-03-02T06:00:20;12.93;;;7.90;;
27031;SDS011;14580;52.918;9.214;2023-03-02T06:02:47;11.47;;;7.33;;
27031;SDS011;14580;52.918;9.214;2023-03-02T06:05:14;15.70;;;6.73;;
27031;SDS011;14580;52.918;9.214;2023-03-02T06:07:45;20.10;;;6.93;;
27031;SDS011;14580;52.918;9.214;2023-03-02T06:10:12;23.43;;;7.43;;
27031;SDS011;14580;52.918;9.214;2023-03-02T06:12:38;29.57;;;8.17;;
27031;SDS011;14580;52.918;9.214;2023-03-02T06:15:05;15.07;;;7.50;;
27031;SDS011;14580;52.918;9.214;2023-03-02T06:17:33;20.70;;;8.40;;
27031;SDS011;14580;52.918;9.214;2023-03-02T06:20:00;21.27;;;7.43;;
27031;SDS011;14580;52.918;9.214;2023-03-02T06:22:26;13.93;;;7.80;;
27031;SDS011;14580;52.918;9.214;2023-03-02T06:24:53;13.37;;;6.83;;
27031;SDS011;14580;52.918;9.214;2023-03-02T06:27:21;16.07;;;6.63;;
27031;SDS011;14580;52.918;9.214;2023-03-02T06:29:48;12.43;;;7.33;;
27031;SDS011;14580;52.918;9.214;2023-03-02T06:32:14;13.70;;;7.47;;
27031;SDS011;14580;52.918;9.214;2023-03-02T06:34:41;13.57;;;8.37;;
27031;SDS011;14580;52.918;9.214;2023-03-02T06:37:09;10.00;;;6.57;;
27031;SDS011;14580;52.918;9.214;2023-03-02T06:39:35;28.53;;;7.83;;
27031;SDS011;14580;52.918;9.214;2023-03-02T06:42:02;33.13;;;7.27;;
27031;SDS011;14580;52.918;9.214;2023-03-02T06:44:28;11.97;;;6.30;;
27031;SDS011;14580;52.918;9.214;2023-03-02T06:46:54;13.93;;;7.03;;
27031;SDS011;14580;52.918;9.214;2023-03-02T06:49:21;19.67;;;7.63;;
27031;SDS011;14580;52.918;9.214;2023-03-02T06:51:48;26.83;;;7.23;;
27031;SDS011;14580;52.918;9.214;2023-03-02T06:54:15;14.97;;;7.23;;
27031;SDS011;14580;52.918;9.214;2023-03-02T06:56:41;13.13;;;7.00;;
27031;SDS011;14580;52.918;9.214;2023-03-02T06:59:08;25.97;;;7.17;;
27031;SDS011;14580;52.918;9.214;2023-03-02T07:01:34;26.50;;;7.27;;
27031;SDS011;14580;52.918;9.214;2023-03-02T07:04:01;14.43;;;6.57;;
27031;SDS011;14580;52.918;9.214;2023-03-02T07:06:28;10.83;;;7.27;;
27031;SDS011;14580;52.918;9.214;2023-03-02T07:08:54;24.50;;;7.20;;
27031;SDS011;14580;52.918;9.214;2023-03-02T07:11:21;20.20;;;6.57;;
27031;SDS011;14580;52.918;9.214;2023-03-02T07:13:47;16.40;;;6.97;;
27031;SDS011;14580;52.918;9.214;2023-03-02T07:16:15;17.30;;;6.40;;
27031;SDS011;14580;52.918;9.214;2023-03-02T07:18:41;16.60;;;7.17;;
27031;SDS011;14580;52.918;9.214;2023-03-02T07:21:08;11.93;;;6.57;;
27031;SDS011;14580;52.918;9.214;2023-03-02T07:23:34;13.03;;;7.43;;
27031;SDS011;14580;52.918;9.214;2023-03-02T07:26:00;8.57;;;5.07;;
27031;SDS011;14580;52.918;9.214;2023-03-02T07:28:32;13.00;;;7.07;;
27031;SDS011;14580;52.918;9.214;2023-03-02T07:31:00;23.50;;;7.07;;
27031;SDS011;14580;52.918;9.214;2023-03-02T07:33:27;16.43;;;6.70;;
27031;SDS011;14580;52.918;9.214;2023-03-02T07:35:53;22.73;;;7.13;;
27031;SDS011;14580;52.918;9.214;2023-03-02T07:38:19;14.93;;;6.43;;
27031;SDS011;14580;52.918;9.214;2023-03-02T07:40:46;15.43;;;6.60;;
27031;SDS011;14580;52.918;9.214;2023-03-02T07:43:12;33.23;;;7.13;;
27031;SDS011;14580;52.918;9.214;2023-03-02T07:45:38;11.93;;;6.40;;
27031;SDS011;14580;52.918;9.214;2023-03-02T07:48:07;12.57;;;7.23;;
27031;SDS011;14580;52.918;9.214;2023-03-02T07:50:34;13.90;;;6.63;;
27031;SDS011;14580;52.918;9.214;2023-03-02T07:53:00;12.23;;;6.80;;
27031;SDS011;14580;52.918;9.214;2023-03-02T07:55:27;25.53;;;7.57;;
27031;SDS011;14580;52.918;9.214;2023-03-02T07:57:53;11.63;;;6.83;;
27031;SDS011;14580;52.918;9.214;2023-03-02T08:00:20;15.33;;;7.50;;
27031;SDS011;14580;52.918;9.214;2023-03-02T08:02:47;39.80;;;7.90;;
27031;SDS011;14580;52.918;9.214;2023-03-02T08:05:14;15.47;;;6.53;;
27031;SDS011;14580;52.918;9.214;2023-03-02T08:07:44;27.03;;;7.03;;
27031;SDS011;14580;52.918;9.214;2023-03-02T08:10:14;22.03;;;7.53;;
27031;SDS011;14580;52.918;9.214;2023-03-02T08:12:41;17.10;;;6.53;;
27031;SDS011;14580;52.918;9.214;2023-03-02T08:15:08;11.20;;;7.03;;
27031;SDS011;14580;52.918;9.214;2023-03-02T08:17:35;15.60;;;7.17;;
27031;SDS011;14580;52.918;9.214;2023-03-02T08:20:02;12.70;;;6.97;;
27031;SDS011;14580;52.918;9.214;2023-03-02T08:22:29;12.63;;;7.00;;
27031;SDS011;14580;52.918;9.214;2023-03-02T08:24:56;12.60;;;6.13;;
27031;SDS011;14580;52.918;9.214;2023-03-02T08:27:23;9.30;;;5.60;;
27031;SDS011;14580;52.918;9.214;2023-03-02T08:29:49;10.43;;;6.13;;
27031;SDS011;14580;52.918;9.214;2023-03-02T08:32:18;14.57;;;6.07;;
27031;SDS011;14580;52.918;9.214;2023-03-02T08:34:44;11.20;;;5.93;;
27031;SDS011;14580;52.918;9.214;2023-03-02T08:37:15;10.80;;;4.87;;
27031;SDS011;14580;52.918;9.214;2023-03-02T08:39:43;8.57;;;6.03;;
27031;SDS011;14580;52.918;9.214;2023-03-02T08:42:11;11.97;;;5.73;;
27031;SDS011;14580;52.918;9.214;2023-03-02T08:44:40;11.07;;;6.20;;
27031;SDS011;14580;52.918;9.214;2023-03-02T08:47:07;24.93;;;6.57;;
27031;SDS011;14580;52.918;9.214;2023-03-02T08:49:34;9.20;;;4.97;;
27031;SDS011;14580;52.918;9.214;2023-03-02T08:52:02;13.77;;;6.43;;
27031;SDS011;14580;52.918;9.214;2023-03-02T08:54:30;17.23;;;5.80;;
27031;SDS011;14580;52.918;9.214;2023-03-02T08:56:59;19.83;;;6.20;;
27031;SDS011;14580;52.918;9.214;2023-03-02T08:59:26;13.73;;;6.97;;
27031;SDS011;14580;52.918;9.214;2023-03-02T09:01:57;10.20;;;6.10;;
27031;SDS011;14580;52.918;9.214;2023-03-02T09:04:24;13.03;;;5.67;;
27031;SDS011;14580;52.918;9.214;2023-03-02T09:06:53;10.20;;;6.77;;
27031;SDS011;14580;52.918;9.214;2023-03-02T09:09:20;10.80;;;5.70;;
27031;SDS011;14580;52.918;9.214;2023-03-02T09:11:47;14.57;;;6.30;;
27031;SDS011;14580;52.918;9.214;2023-03-02T09:14:18;10.03;;;6.53;;
27031;SDS011;14580;52.918;9.214;2023-03-02T09:16:49;11.20;;;6.47;;
27031;SDS011;14580;52.918;9.214;2023-03-02T09:19:16;14.30;;;6.30;;
27031;SDS011;14580;52.918;9.214;2023-03-02T09:21:43;10.40;;;5.83;;
27031;SDS011;14580;52.918;9.214;2023-03-02T09:24:10;10.17;;;6.33;;
27031;SDS011;14580;52.918;9.214;2023-03-02T09:26:36;10.40;;;6.27;;
27031;SDS011;14580;52.918;9.214;2023-03-02T09:29:03;15.77;;;6.63;;
27031;SDS011;14580;52.918;9.214;2023-03-02T09:31:31;11.07;;;6.87;;
27031;SDS011;14580;52.918;9.214;2023-03-02T09:33:58;10.27;;;5.87;;
27031;SDS011;14580;52.918;9.214;2023-03-02T09:36:25;10.03;;;6.37;;
27031;SDS011;14580;52.918;9.214;2023-03-02T09:38:52;13.60;;;6.97;;
27031;SDS011;14580;52.918;9.214;2023-03-02T09:44:01;11.30;;;6.37;;
27031;SDS011;14580;52.918;9.214;2023-03-02T09:47:37;11.03;;;6.93;;
27031;SDS011;14580;52.918;9.214;2023-03-02T09:50:44;12.43;;;7.57;;
27031;SDS011;14580;52.918;9.214;2023-03-02T09:56:29;12.90;;;6.97;;
27031;SDS011;14580;52.918;9.214;2023-03-02T09:59:29;11.53;;;6.50;;
27031;SDS011;14580;52.918;9.214;2023-03-02T10:01:57;12.77;;;7.13;;
27031;SDS011;14580;52.918;9.214;2023-03-02T10:04:35;10.13;;;6.60;;
27031;SDS011;14580;52.918;9.214;2023-03-02T10:09:47;11.10;;;7.53;;
27031;SDS011;14580;52.918;9.214;2023-03-02T10:15:11;13.73;;;7.27;;
27031;SDS011;14580;52.918;9.214;2023-03-02T10:17:55;11.37;;;7.20;;
27031;SDS011;14580;52.918;9.214;2023-03-02T10:20:54;10.87;;;7.20;;
27031;SDS011;14580;52.918;9.214;2023-03-02T10:26:40;10.77;;;6.70;;
27031;SDS011;14580;52.918;9.214;2023-03-02T10:34:44;10.07;;;6.17;;
27031;SDS011;14580;52.918;9.214;2023-03-02T10:37:17;11.87;;;6.73;;
27031;SDS011;14580;52.918;9.214;2023-03-02T10:39:52;11.90;;;7.20;;
27031;SDS011;14580;52.918;9.214;2023-03-02T10:47:44;11.57;;;7.67;;
27031;SDS011;14580;52.918;9.214;2023-03-02T10:50:19;12.03;;;7.43;;
27031;SDS011;14580;52.918;9.214;2023-03-02T10:52:48;11.37;;;7.57;;
27031;SDS011;14580;52.918;9.214;2023-03-02T10:55:16;16.07;;;6.80;;
27031;SDS011;14580;52.918;9.214;2023-03-02T10:57:43;11.27;;;6.93;;
27031;SDS011;14580;52.918;9.214;2023-03-02T11:02:53;11.90;;;7.80;;
27031;SDS011;14580;52.918;9.214;2023-03-02T11:08:09;12.60;;;6.53;;
27031;SDS011;14580;52.918;9.214;2023-03-02T11:10:58;12.27;;;7.90;;
27031;SDS011;14580;52.918;9.214;2023-03-02T11:13:34;11.70;;;7.23;;
27031;SDS011;14580;52.918;9.214;2023-03-02T11:16:03;10.20;;;6.90;;
27031;SDS011;14580;52.918;9.214;2023-03-02T11:24:31;15.07;;;7.93;;
27031;SDS011;14580;52.918;9.214;2023-03-02T11:27:18;11.37;;;7.43;;
27031;SDS011;14580;52.918;9.214;2023-03-02T11:32:43;12.23;;;7.47;;
27031;SDS011;14580;52.918;9.214;2023-03-02T11:38:50;13.27;;;7.27;;
27031;SDS011;14580;52.918;9.214;2023-03-02T11:41:24;10.23;;;7.17;;
27031;SDS011;14580;52.918;9.214;2023-03-02T11:43:59;10.70;;;6.93;;
27031;SDS011;14580;52.918;9.214;2023-03-02T11:46:46;12.77;;;7.23;;
27031;SDS011;14580;52.918;9.214;2023-03-02T11:49:23;10.27;;;7.10;;
27031;SDS011;14580;52.918;9.214;2023-03-02T11:52:22;12.27;;;7.57;;
27031;SDS011;14580;52.918;9.214;2023-03-02T11:57:58;13.37;;;7.80;;
27031;SDS011;14580;52.918;9.214;2023-03-02T12:00:35;12.83;;;7.50;;
27031;SDS011;14580;52.918;9.214;2023-03-02T12:05:40;9.63;;;6.70;;
27031;SDS011;14580;52.918;9.214;2023-03-02T12:13:44;9.63;;;6.90;;
27031;SDS011;14580;52.918;9.214;2023-03-02T12:16:17;11.73;;;7.43;;
27031;SDS011;14580;52.918;9.214;2023-03-02T12:18:51;10.00;;;7.17;;
27031;SDS011;14580;52.918;9.214;2023-03-02T12:21:22;9.87;;;6.17;;
27031;SDS011;14580;52.918;9.214;2023-03-02T12:31:46;10.20;;;6.17;;
27031;SDS011;14580;52.918;9.214;2023-03-02T12:36:52;10.37;;;6.37;;
27031;SDS011;14580;52.918;9.214;2023-03-02T12:44:52;9.40;;;6.23;;
27031;SDS011;14580;52.918;9.214;2023-03-02T12:47:29;10.43;;;6.30;;
27031;SDS011;14580;52.918;9.214;2023-03-02T12:49:56;7.97;;;5.80;;
27031;SDS011;14580;52.918;9.214;2023-03-02T12:55:04;12.57;;;7.50;;
27031;SDS011;14580;52.918;9.214;2023-03-02T12:57:48;10.83;;;6.60;;
27031;SDS011;14580;52.918;9.214;2023-03-02T13:00:21;14.43;;;6.80;;
27031;SDS011;14580;52.918;9.214;2023-03-02T13:02:54;13.40;;;7.53;;
27031;SDS011;14580;52.918;9.214;2023-03-02T13:05:24;8.73;;;5.63;;
27031;SDS011;14580;52.918;9.214;2023-03-02T13:10:43;8.83;;;5.57;;
27031;SDS011;14580;52.918;9.214;2023-03-02T13:13:22;10.60;;;6.13;;
27031;SDS011;14580;52.918;9.214;2023-03-02T13:16:16;10.20;;;6.23;;
27031;SDS011;14580;52.918;9.214;2023-03-02T13:18:56;8.83;;;5.10;;
27031;SDS011;14580;52.918;9.214;2023-03-02T13:21:29;8.90;;;6.50;;
27031;SDS011;14580;52.918;9.214;2023-03-02T13:24:01;11.20;;;6.43;;
27031;SDS011;14580;52.918;9.214;2023-03-02T13:29:46;9.37;;;6.10;;
27031;SDS011;14580;52.918;9.214;2023-03-02T13:34:51;9.20;;;5.87;;
27031;SDS011;14580;52.918;9.214;2023-03-02T13:42:54;12.50;;;6.73;;
27031;SDS011;14580;52.918;9.214;2023-03-02T13:45:25;8.13;;;5.90;;
27031;SDS011;14580;52.918;9.214;2023-03-02T13:47:54;9.33;;;6.20;;
27031;SDS011;14580;52.918;9.214;2023-03-02T13:50:32;8.50;;;5.70;;
27031;SDS011;14580;52.918;9.214;2023-03-02T13:52:59;11.67;;;7.33;;
27031;SDS011;14580;52.918;9.214;2023-03-02T13:55:31;11.63;;;6.57;;
27031;SDS011;14580;52.918;9.214;2023-03-02T13:57:58;9.30;;;6.40;;
27031;SDS011;14580;52.918;9.214;2023-03-02T14:00:32;9.17;;;6.70;;
27031;SDS011;14580;52.918;9.214;2023-03-02T14:03:00;10.43;;;6.03;;
27031;SDS011;14580;52.918;9.214;2023-03-02T14:05:27;9.53;;;5.57;;
27031;SDS011;14580;52.918;9.214;2023-03-02T14:08:00;9.83;;;6.53;;
27031;SDS011;14580;52.918;9.214;2023-03-02T14:10:27;9.07;;;5.80;;
27031;SDS011;14580;52.918;9.214;2023-03-02T14:12:55;10.97;;;6.17;;
27031;SDS011;14580;52.918;9.214;2023-03-02T14:15:44;10.33;;;6.27;;
27031;SDS011;14580;52.918;9.214;2023-03-02T14:18:23;10.63;;;6.10;;
27031;SDS011;14580;52.918;9.214;2023-03-02T14:21:04;9.77;;;5.47;;
27031;SDS011;14580;52.918;9.214;2023-03-02T14:23:36;10.67;;;5.53;;
27031;SDS011;14580;52.918;9.214;2023-03-02T14:26:09;8.77;;;5.67;;
27031;SDS011;14580;52.918;9.214;2023-03-02T14:28:58;9.27;;;5.47;;
27031;SDS011;14580;52.918;9.214;2023-03-02T14:31:32;11.20;;;5.23;;
27031;SDS011;14580;52.918;9.214;2023-03-02T14:33:59;9.87;;;6.03;;
27031;SDS011;14580;52.918;9.214;2023-03-02T14:36:32;9.20;;;5.57;;
27031;SDS011;14580;52.918;9.214;2023-03-02T14:38:59;9.60;;;5.67;;
27031;SDS011;14580;52.918;9.214;2023-03-02T14:41:30;11.57;;;7.03;;
27031;SDS011;14580;52.918;9.214;2023-03-02T14:43:59;9.93;;;5.70;;
27031;SDS011;14580;52.918;9.214;2023-03-02T14:46:26;10.07;;;6.40;;
27031;SDS011;14580;52.918;9.214;2023-03-02T14:48:52;12.43;;;7.20;;
27031;SDS011;14580;52.918;9.214;2023-03-02T14:51:23;9.67;;;5.97;;
27031;SDS011;14580;52.918;9.214;2023-03-02T14:53:54;9.87;;;6.10;;
27031;SDS011;14580;52.918;9.214;2023-03-02T14:56:23;9.03;;;5.23;;
27031;SDS011;14580;52.918;9.214;2023-03-02T14:58:50;10.40;;;6.27;;
27031;SDS011;14580;52.918;9.214;2023-03-02T15:01:18;11.43;;;5.57;;
27031;SDS011;14580;52.918;9.214;2023-03-02T15:03:45;10.17;;;5.77;;
27031;SDS011;14580;52.918;9.214;2023-03-02T15:06:19;10.27;;;6.23;;
27031;SDS011;14580;52.918;9.214;2023-03-02T15:08:58;11.27;;;5.60;;
27031;SDS011;14580;52.918;9.214;2023-03-02T15:11:26;8.80;;;5.17;;
27031;SDS011;14580;52.918;9.214;2023-03-02T15:13:55;10.97;;;6.40;;
27031;SDS011;14580;52.918;9.214;2023-03-02T15:16:22;11.67;;;5.73;;
27031;SDS011;14580;52.918;9.214;2023-03-02T15:18:48;11.30;;;6.60;;
27031;SDS011;14580;52.918;9.214;2023-03-02T15:21:22;10.57;;;6.07;;
27031;SDS011;14580;52.918;9.214;2023-03-02T15:23:59;8.70;;;5.30;;
27031;SDS011;14580;52.918;9.214;2023-03-02T15:26:25;8.63;;;5.60;;
27031;SDS011;14580;52.918;9.214;2023-03-02T15:28:52;9.43;;;6.27;;
27031;SDS011;14580;52.918;9.214;2023-03-02T15:31:22;10.47;;;5.80;;
27031;SDS011;14580;52.918;9.214;2023-03-02T15:33:49;10.17;;;6.03;;
27031;SDS011;14580;52.918;9.214;2023-03-02T15:36:16;10.17;;;5.93;;
27031;SDS011;14580;52.918;9.214;2023-03-02T15:38:42;9.33;;;5.77;;
27031;SDS011;14580;52.918;9.214;2023-03-02T15:41:10;9.57;;;6.10;;
27031;SDS011;14580;52.918;9.214;2023-03-02T15:43:39;10.77;;;5.97;;
27031;SDS011;14580;52.918;9.214;2023-03-02T15:46:05;10.03;;;5.67;;
27031;SDS011;14580;52.918;9.214;2023-03-02T15:48:33;10.57;;;6.37;;
27031;SDS011;14580;52.918;9.214;2023-03-02T15:51:01;12.13;;;5.77;;
27031;SDS011;14580;52.918;9.214;2023-03-02T15:53:31;13.20;;;6.77;;
27031;SDS011;14580;52.918;9.214;2023-03-02T15:56:07;11.13;;;6.33;;
27031;SDS011;14580;52.918;9.214;2023-03-02T15:58:38;11.17;;;6.17;;
27031;SDS011;14580;52.918;9.214;2023-03-02T16:01:09;10.77;;;6.57;;
27031;SDS011;14580;52.918;9.214;2023-03-02T16:03:36;12.13;;;6.70;;
27031;SDS011;14580;52.918;9.214;2023-03-02T16:06:03;10.93;;;6.40;;
27031;SDS011;14580;52.918;9.214;2023-03-02T16:08:30;10.60;;;7.03;;
27031;SDS011;14580;52.918;9.214;2023-03-02T16:13:24;11.80;;;7.30;;
27031;SDS011;14580;52.918;9.214;2023-03-02T16:15:51;12.70;;;7.03;;
27031;SDS011;14580;52.918;9.214;2023-03-02T16:18:18;14.97;;;7.57;;
27031;SDS011;14580;52.918;9.214;2023-03-02T16:20:44;15.07;;;8.43;;
27031;SDS011;14580;52.918;9.214;2023-03-02T16:23:11;13.47;;;8.03;;
27031;SDS011;14580;52.918;9.214;2023-03-02T16:25:38;13.83;;;7.33;;
27031;SDS011;14580;52.918;9.214;2023-03-02T16:28:07;17.20;;;9.07;;
27031;SDS011;14580;52.918;9.214;2023-03-02T16:30:36;16.20;;;8.50;;
27031;SDS011;14580;52.918;9.214;2023-03-02T16:33:05;18.60;;;9.60;;